createdAt,value
2023-03-19T00:01:49.247Z,26.80
2023-03-19T00:04:17.261Z,27.53
2023-03-19T00:06:44.156Z,23.87
2023-03-19T00:09:11.492Z,27.60
2023-03-19T00:11:38.215Z,25.17
2023-03-19T00:14:05.992Z,26.23
2023-03-19T00:16:33.127Z,24.73
2023-03-19T00:18:59.983Z,27.50
2023-03-19T00:21:27.167Z,26.83
2023-03-19T00:23:54.398Z,24.40
2023-03-19T00:26:20.924Z,25.93
2023-03-19T00:28:47.368Z,26.40
2023-03-19T00:31:16.584Z,25.63
2023-03-19T00:33:43.228Z,26.17
2023-03-19T00:36:10.948Z,27.47
2023-03-19T00:38:37.442Z,26.93
2023-03-19T00:41:05.249Z,27.20
2023-03-19T00:43:32.201Z,25.50
2023-03-19T00:45:58.944Z,26.77
2023-03-19T00:48:25.593Z,23.37
2023-03-19T00:50:52.101Z,26.60
2023-03-19T00:53:18.926Z,25.83
2023-03-19T00:55:46.215Z,23.37
2023-03-19T00:58:13.284Z,24.97
2023-03-19T01:00:40.013Z,26.17
2023-03-19T01:03:06.798Z,24.13
2023-03-19T01:05:36.283Z,25.10
2023-03-19T01:08:03.124Z,27.30
2023-03-19T01:10:29.710Z,26.67
2023-03-19T01:12:56.937Z,28.30
2023-03-19T01:15:23.483Z,24.43
2023-03-19T01:17:50.082Z,26.83
2023-03-19T01:20:18.871Z,24.83
2023-03-19T01:22:45.845Z,23.13
2023-03-19T01:25:13.835Z,21.77
2023-03-19T01:27:40.391Z,22.70
2023-03-19T01:30:07.709Z,23.93
2023-03-19T01:32:34.189Z,24.27
2023-03-19T01:35:01.228Z,24.07
2023-03-19T01:37:28.247Z,25.93
2023-03-19T01:39:54.862Z,23.80
2023-03-19T01:42:21.525Z,25.37
2023-03-19T01:44:48.070Z,25.87
2023-03-19T01:47:18.349Z,27.57
2023-03-19T01:49:47.918Z,22.43
2023-03-19T01:52:15.168Z,28.40
2023-03-19T01:54:41.777Z,22.37
2023-03-19T01:57:11.796Z,24.83
2023-03-19T01:59:42.184Z,25.10
2023-03-19T02:02:30.507Z,26.30
2023-03-19T02:05:01.645Z,24.53
2023-03-19T02:07:33.184Z,23.70
2023-03-19T02:10:01.422Z,23.07
2023-03-19T02:12:28.113Z,25.10
2023-03-19T02:14:55.073Z,22.73
2023-03-19T02:17:22.131Z,25.90
2023-03-19T02:20:02.410Z,23.43
2023-03-19T02:22:30.409Z,21.57
2023-03-19T02:25:02.214Z,23.93
2023-03-19T02:27:29.178Z,27.47
2023-03-19T02:29:56.078Z,24.67
2023-03-19T02:32:22.959Z,23.40
2023-03-19T02:34:49.837Z,23.80
2023-03-19T02:37:26.482Z,27.13
2023-03-19T02:39:59.555Z,23.63
2023-03-19T02:42:28.485Z,25.73
2023-03-19T02:44:55.049Z,27.43
2023-03-19T02:47:21.649Z,24.73
2023-03-19T02:49:48.455Z,26.57
2023-03-19T02:52:15.107Z,24.20
2023-03-19T02:54:41.894Z,25.07
2023-03-19T02:57:08.648Z,25.33
2023-03-19T02:59:35.772Z,27.73
2023-03-19T03:02:02.300Z,24.70
2023-03-19T03:04:29.218Z,25.13
2023-03-19T03:06:55.723Z,25.70
2023-03-19T03:09:22.670Z,28.17
2023-03-19T03:11:49.445Z,27.20
2023-03-19T03:14:15.931Z,26.03
2023-03-19T03:16:42.552Z,23.23
2023-03-19T03:19:09.277Z,24.53
2023-03-19T03:21:36.223Z,26.73
2023-03-19T03:24:02.978Z,23.40
2023-03-19T03:26:29.938Z,24.07
2023-03-19T03:28:56.454Z,25.30
2023-03-19T03:31:23.316Z,23.83
2023-03-19T03:33:50.331Z,24.87
2023-03-19T03:36:17.544Z,24.23
2023-03-19T03:38:45.203Z,23.33
2023-03-19T03:41:11.677Z,25.97
2023-03-19T03:43:38.196Z,23.60
2023-03-19T03:46:05.147Z,25.10
2023-03-19T03:48:31.694Z,25.87
2023-03-19T03:50:58.277Z,25.77
2023-03-19T03:53:24.958Z,29.07
2023-03-19T03:55:51.601Z,28.77
2023-03-19T03:58:18.148Z,25.03
2023-03-19T04:00:44.602Z,26.30
2023-03-19T04:03:11.105Z,24.13
2023-03-19T04:05:38.427Z,29.50
2023-03-19T04:08:05.353Z,23.97
2023-03-19T04:10:32.457Z,24.03
2023-03-19T04:12:59.367Z,25.50
2023-03-19T04:15:25.832Z,28.57
2023-03-19T04:17:52.334Z,24.20
2023-03-19T04:20:19.208Z,25.43
2023-03-19T04:22:45.769Z,25.23
2023-03-19T04:25:12.284Z,25.80
2023-03-19T04:27:38.708Z,27.57
2023-03-19T04:30:05.936Z,25.87
2023-03-19T04:32:33.632Z,26.53
2023-03-19T04:35:00.369Z,23.93
2023-03-19T04:37:27.121Z,26.87
2023-03-19T04:39:54.491Z,27.20
2023-03-19T04:42:21.532Z,26.67
2023-03-19T04:44:48.657Z,25.17
2023-03-19T04:47:15.370Z,25.60
2023-03-19T04:49:42.368Z,23.33
2023-03-19T04:52:09.413Z,26.00
2023-03-19T04:54:35.803Z,27.47
2023-03-19T04:57:02.358Z,24.70
2023-03-19T04:59:28.865Z,27.00
2023-03-19T05:01:55.656Z,24.70
2023-03-19T05:04:23.985Z,21.70
2023-03-19T05:06:50.512Z,23.73
2023-03-19T05:09:17.140Z,24.10
2023-03-19T05:11:43.804Z,26.03
2023-03-19T05:14:10.267Z,22.70
2023-03-19T05:16:37.158Z,24.90
2023-03-19T05:19:03.671Z,25.27
2023-03-19T05:21:30.294Z,25.40
2023-03-19T05:23:57.221Z,25.33
2023-03-19T05:26:23.998Z,23.77
2023-03-19T05:28:50.626Z,25.93
2023-03-19T05:31:17.358Z,25.20
2023-03-19T05:33:43.949Z,25.53
2023-03-19T05:36:10.623Z,23.03
2023-03-19T05:38:37.003Z,25.70
2023-03-19T05:41:07.394Z,24.90
2023-03-19T05:43:34.131Z,26.50
2023-03-19T05:46:00.700Z,25.50
2023-03-19T05:48:27.395Z,25.53
2023-03-19T05:50:54.414Z,24.33
2023-03-19T05:53:21.537Z,25.10
2023-03-19T05:55:47.965Z,23.50
2023-03-19T05:58:15.393Z,23.97
2023-03-19T06:00:42.264Z,24.33
2023-03-19T06:03:08.843Z,26.20
2023-03-19T06:05:36.242Z,22.90
2023-03-19T06:08:02.670Z,21.97
2023-03-19T06:10:29.096Z,23.83
2023-03-19T06:12:55.981Z,25.07
2023-03-19T06:15:22.412Z,22.53
2023-03-19T06:17:48.915Z,21.33
2023-03-19T06:20:15.426Z,24.77
2023-03-19T06:22:43.613Z,24.50
2023-03-19T06:25:10.310Z,23.33
2023-03-19T06:27:36.932Z,23.50
2023-03-19T06:30:03.776Z,20.67
2023-03-19T06:32:30.390Z,24.97
2023-03-19T06:34:57.128Z,22.93
2023-03-19T06:37:23.858Z,23.03
2023-03-19T06:39:51.078Z,21.57
2023-03-19T06:42:17.586Z,24.10
2023-03-19T06:44:44.148Z,21.87
2023-03-19T06:47:10.953Z,25.70
2023-03-19T06:49:37.394Z,27.52
2023-03-19T06:52:04.456Z,24.45
2023-03-19T06:54:31.278Z,23.80
2023-03-19T06:56:58.088Z,23.43
2023-03-19T06:59:25.291Z,21.50
2023-03-19T07:01:52.593Z,22.20
2023-03-19T07:04:19.489Z,23.15
2023-03-19T07:06:46.437Z,23.60
2023-03-19T07:09:13.139Z,22.55
2023-03-19T07:11:39.825Z,23.35
2023-03-19T07:14:06.295Z,24.52
2023-03-19T07:16:33.210Z,20.17
2023-03-19T07:18:59.745Z,23.30
2023-03-19T07:21:26.333Z,19.83
2023-03-19T07:23:52.938Z,18.88
2023-03-19T07:26:19.916Z,19.83
2023-03-19T07:28:46.714Z,22.55
2023-03-19T07:31:13.395Z,22.38
2023-03-19T07:33:40.080Z,22.38
2023-03-19T07:36:07.251Z,17.92
2023-03-19T07:38:33.788Z,21.37
2023-03-19T07:41:02.790Z,21.48
2023-03-19T07:43:30.209Z,21.50
2023-03-19T07:45:58.601Z,21.08
2023-03-19T07:48:25.269Z,25.00
2023-03-19T07:50:51.954Z,21.58
2023-03-19T07:53:18.763Z,21.53
2023-03-19T07:55:45.633Z,27.50
2023-03-19T07:58:13.422Z,23.40
2023-03-19T08:00:39.987Z,25.02
2023-03-19T08:03:06.619Z,21.70
2023-03-19T08:05:33.577Z,24.20
2023-03-19T08:07:59.958Z,23.20
2023-03-19T08:10:27.266Z,19.97
2023-03-19T08:12:54.221Z,19.80
2023-03-19T08:15:21.374Z,22.27
2023-03-19T08:17:49.094Z,21.50
2023-03-19T08:20:18.933Z,21.98
2023-03-19T08:22:49.246Z,22.60
2023-03-19T08:25:15.792Z,18.63
2023-03-19T08:27:42.800Z,22.67
2023-03-19T08:30:11.790Z,21.48
2023-03-19T08:32:38.345Z,20.08
2023-03-19T08:35:06.250Z,18.95
2023-03-19T08:37:32.821Z,20.48
2023-03-19T08:39:59.797Z,21.85
2023-03-19T08:42:26.313Z,18.25
2023-03-19T08:44:52.734Z,21.85
2023-03-19T08:47:24.241Z,19.63
2023-03-19T08:49:51.861Z,20.00
2023-03-19T08:52:19.384Z,19.83
2023-03-19T08:54:45.987Z,21.33
2023-03-19T08:57:12.605Z,21.50
2023-03-19T08:59:39.092Z,21.55
2023-03-19T09:02:05.769Z,20.27
2023-03-19T09:04:36.718Z,19.52
2023-03-19T09:07:03.337Z,20.40
2023-03-19T09:09:30.241Z,20.15
2023-03-19T09:11:56.859Z,22.98
2023-03-19T09:14:23.415Z,23.52
2023-03-19T09:16:49.904Z,19.88
2023-03-19T09:19:17.373Z,19.90
2023-03-19T09:21:44.971Z,20.75
2023-03-19T09:24:11.546Z,19.58
2023-03-19T09:26:38.080Z,21.50
2023-03-19T09:29:05.023Z,19.40
2023-03-19T09:31:31.745Z,23.77
2023-03-19T09:33:58.465Z,23.95
2023-03-19T09:36:25.550Z,23.08
2023-03-19T09:38:52.468Z,19.35
2023-03-19T09:41:31.447Z,18.77
2023-03-19T09:44:10.683Z,17.23
2023-03-19T09:46:46.242Z,19.90
2023-03-19T09:49:34.289Z,20.55
2023-03-19T09:52:22.397Z,18.42
2023-03-19T09:54:52.661Z,20.30
2023-03-19T09:57:19.845Z,19.67
2023-03-19T09:59:47.729Z,18.80
2023-03-19T10:02:29.463Z,19.83
2023-03-19T10:05:26.677Z,19.92
2023-03-19T10:08:11.882Z,18.10
2023-03-19T10:10:49.541Z,20.08
2023-03-19T10:13:39.616Z,19.13
2023-03-19T10:16:12.782Z,21.52
2023-03-19T10:18:45.898Z,21.48
2023-03-19T10:21:34.275Z,19.45
2023-03-19T10:24:12.551Z,19.48
2023-03-19T10:26:39.018Z,21.40
2023-03-19T10:29:15.827Z,20.58
2023-03-19T10:32:05.701Z,18.98
2023-03-19T10:34:36.388Z,20.05
2023-03-19T10:37:15.278Z,20.95
2023-03-19T10:39:44.319Z,20.02
2023-03-19T10:42:36.350Z,20.40
2023-03-19T10:45:11.303Z,18.48
2023-03-19T10:47:40.424Z,20.67
2023-03-19T10:50:10.658Z,19.40
2023-03-19T10:52:38.018Z,18.90
2023-03-19T10:55:33.687Z,18.58
2023-03-19T10:58:16.278Z,19.40
2023-03-19T11:00:46.687Z,19.88
2023-03-19T11:03:32.436Z,18.25
2023-03-19T11:06:33.042Z,20.15
2023-03-19T11:09:08.666Z,20.75
2023-03-19T11:11:45.128Z,22.85
2023-03-19T11:14:18.576Z,28.75
2023-03-19T11:16:51.138Z,17.13
2023-03-19T11:19:41.462Z,23.35
2023-03-19T11:22:19.627Z,20.25
2023-03-19T11:24:53.670Z,22.60
2023-03-19T11:27:29.700Z,21.35
2023-03-19T11:29:56.281Z,19.75
2023-03-19T11:32:59.887Z,19.92
2023-03-19T11:35:38.044Z,19.98
2023-03-19T11:38:14.306Z,19.45
2023-03-19T11:40:47.815Z,23.00
2023-03-19T11:43:29.586Z,21.33
2023-03-19T11:46:18.341Z,19.40
2023-03-19T11:48:50.882Z,17.85
2023-03-19T11:51:38.855Z,20.45
2023-03-19T11:54:28.408Z,19.42
2023-03-19T11:57:00.119Z,20.13
2023-03-19T11:59:30.318Z,19.08
2023-03-19T12:02:16.797Z,19.80
2023-03-19T12:05:10.041Z,18.83
2023-03-19T12:08:08.093Z,18.33
2023-03-19T12:10:43.714Z,18.75
2023-03-19T12:13:37.679Z,17.80
2023-03-19T12:16:13.746Z,20.02
2023-03-19T12:18:49.256Z,19.85
2023-03-19T12:21:28.008Z,19.15
2023-03-19T12:24:19.837Z,18.92
2023-03-19T12:27:09.736Z,20.27
2023-03-19T12:29:56.969Z,19.52
2023-03-19T12:32:58.108Z,21.45
2023-03-19T12:35:31.837Z,21.73
2023-03-19T12:38:07.152Z,17.42
2023-03-19T12:40:58.420Z,19.23
2023-03-19T12:43:49.429Z,19.10
2023-03-19T12:46:32.172Z,18.80
2023-03-19T12:49:19.786Z,18.88
2023-03-19T12:51:57.109Z,19.38
2023-03-19T12:54:39.386Z,21.13
2023-03-19T12:57:23.494Z,19.48
2023-03-19T13:00:08.204Z,19.40
2023-03-19T13:02:40.987Z,20.50
2023-03-19T13:05:27.037Z,20.45
2023-03-19T13:08:02.314Z,19.70
2023-03-19T13:10:29.720Z,21.00
2023-03-19T13:12:57.052Z,18.38
2023-03-19T13:15:28.725Z,21.80
2023-03-19T13:18:17.081Z,20.48
2023-03-19T13:20:56.922Z,18.88
2023-03-19T13:23:35.051Z,18.02
2023-03-19T13:26:04.748Z,18.77
2023-03-19T13:28:35.009Z,20.08
2023-03-19T13:31:06.694Z,17.50
2023-03-19T13:33:38.719Z,20.38
2023-03-19T13:36:07.746Z,17.77
2023-03-19T13:38:40.037Z,22.67
2023-03-19T13:41:32.314Z,18.45
2023-03-19T13:44:00.006Z,17.58
2023-03-19T13:46:31.095Z,21.38
2023-03-19T13:49:25.382Z,20.77
2023-03-19T13:51:54.993Z,19.35
2023-03-19T13:54:32.706Z,21.02
2023-03-19T13:57:01.279Z,20.77
2023-03-19T13:59:29.836Z,21.52
2023-03-19T14:01:57.082Z,22.88
2023-03-19T14:04:30.681Z,24.55
2023-03-19T14:07:15.583Z,19.02
2023-03-19T14:09:43.423Z,20.30
2023-03-19T14:12:16.241Z,21.48
2023-03-19T14:14:49.047Z,19.95
2023-03-19T14:17:25.759Z,21.63
2023-03-19T14:19:54.276Z,17.65
2023-03-19T14:22:32.771Z,22.35
2023-03-19T14:25:17.948Z,18.63
2023-03-19T14:27:48.356Z,22.50
2023-03-19T14:30:25.512Z,18.65
2023-03-19T14:32:52.276Z,17.98
2023-03-19T14:35:22.694Z,22.80
2023-03-19T14:37:51.042Z,21.02
2023-03-19T14:40:20.997Z,21.20
2023-03-19T14:43:25.372Z,23.63
2023-03-19T14:46:01.567Z,22.92
2023-03-19T14:49:16.180Z,19.55
2023-03-19T14:51:54.772Z,20.33
2023-03-19T14:54:30.665Z,23.33
2023-03-19T14:56:57.687Z,23.25
2023-03-19T14:59:24.637Z,19.35
2023-03-19T15:01:54.213Z,20.77
2023-03-19T15:04:23.191Z,22.38
2023-03-19T15:06:54.424Z,22.08
2023-03-19T15:09:32.476Z,20.02
2023-03-19T15:12:20.224Z,20.75
2023-03-19T15:15:09.677Z,21.50
2023-03-19T15:17:39.302Z,20.38
2023-03-19T15:20:22.593Z,21.38
2023-03-19T15:23:01.218Z,23.27
2023-03-19T15:25:28.438Z,19.40
2023-03-19T15:28:09.193Z,21.00
2023-03-19T15:30:50.449Z,20.55
2023-03-19T15:33:38.806Z,14.63
2023-03-19T15:36:09.139Z,17.00
2023-03-19T15:38:40.864Z,16.70
2023-03-19T15:41:08.799Z,8.95
2023-03-19T15:43:38.150Z,9.02
2023-03-19T15:46:05.744Z,8.35
2023-03-19T15:48:42.124Z,6.97
2023-03-19T15:51:10.061Z,6.85
2023-03-19T15:53:37.447Z,7.50
2023-03-19T15:56:04.944Z,6.85
2023-03-19T15:58:36.373Z,6.07
2023-03-19T16:01:07.097Z,4.53
2023-03-19T16:03:42.250Z,6.93
2023-03-19T16:06:21.332Z,6.40
2023-03-19T16:08:53.420Z,6.22
2023-03-19T16:11:28.377Z,8.00
2023-03-19T16:14:00.096Z,7.75
2023-03-19T16:16:29.800Z,8.73
2023-03-19T16:18:57.638Z,34.28
2023-03-19T16:21:41.290Z,10.27
2023-03-19T16:24:27.503Z,22.10
2023-03-19T16:26:54.159Z,15.30
2023-03-19T16:29:24.623Z,7.20
2023-03-19T16:31:59.777Z,17.75
2023-03-19T16:34:36.537Z,17.17
2023-03-19T16:37:24.963Z,18.73
2023-03-19T16:39:56.920Z,5.85
2023-03-19T16:42:38.422Z,8.60
2023-03-19T16:45:18.183Z,6.00
2023-03-19T16:48:05.276Z,6.47
2023-03-19T16:50:40.035Z,5.32
2023-03-19T16:53:21.639Z,5.60
2023-03-19T16:55:48.481Z,4.10
2023-03-19T16:58:16.883Z,6.97
2023-03-19T17:00:44.361Z,7.38
2023-03-19T17:03:13.140Z,6.28
2023-03-19T17:05:39.689Z,5.80
2023-03-19T17:08:06.105Z,4.80
2023-03-19T17:10:33.464Z,4.75
2023-03-19T17:13:00.594Z,6.15
2023-03-19T17:15:39.190Z,5.45
2023-03-19T17:18:23.470Z,5.75
2023-03-19T17:20:56.761Z,6.25
2023-03-19T17:23:26.830Z,6.18
2023-03-19T17:25:54.120Z,5.35
2023-03-19T17:28:20.654Z,4.88
2023-03-19T17:30:47.356Z,4.97
2023-03-19T17:33:24.293Z,4.30
2023-03-19T17:35:51.988Z,6.35
2023-03-19T17:38:19.597Z,5.18
2023-03-19T17:40:47.047Z,5.38
2023-03-19T17:43:14.952Z,6.70
2023-03-19T17:45:45.876Z,8.55
2023-03-19T17:48:19.934Z,7.45
2023-03-19T17:50:46.438Z,6.55
2023-03-19T17:53:14.488Z,5.25
2023-03-19T17:55:41.041Z,4.45
2023-03-19T17:58:15.735Z,6.93
2023-03-19T18:00:42.401Z,4.13
2023-03-19T18:03:13.055Z,6.15
2023-03-19T18:05:40.257Z,6.00
2023-03-19T18:08:07.128Z,5.20
2023-03-19T18:10:34.657Z,5.55
2023-03-19T18:13:01.725Z,6.40
2023-03-19T18:15:29.749Z,5.32
2023-03-19T18:17:58.200Z,6.32
2023-03-19T18:20:27.355Z,5.05
2023-03-19T18:22:53.901Z,7.20
2023-03-19T18:25:23.778Z,5.38
2023-03-19T18:27:50.798Z,5.65
2023-03-19T18:30:19.429Z,6.30
2023-03-19T18:32:49.777Z,7.75
2023-03-19T18:35:22.914Z,5.32
2023-03-19T18:37:51.463Z,7.45
2023-03-19T18:40:21.205Z,5.63
2023-03-19T18:42:48.227Z,5.63
2023-03-19T18:45:17.242Z,6.75
2023-03-19T18:47:45.047Z,8.50
2023-03-19T18:50:16.740Z,8.43
2023-03-19T18:52:45.293Z,8.48
2023-03-19T18:55:12.843Z,7.10
2023-03-19T18:57:53.452Z,7.15
2023-03-19T19:00:23.969Z,8.10
2023-03-19T19:02:51.107Z,13.82
2023-03-19T19:05:19.417Z,7.85
2023-03-19T19:07:46.150Z,8.32
2023-03-19T19:10:12.797Z,10.70
2023-03-19T19:12:44.350Z,7.90
2023-03-19T19:15:25.888Z,10.57
2023-03-19T19:17:53.144Z,8.68
2023-03-19T19:20:22.131Z,10.15
2023-03-19T19:22:51.308Z,10.57
2023-03-19T19:25:23.212Z,10.98
2023-03-19T19:27:58.631Z,11.85
2023-03-19T19:30:25.202Z,10.65
2023-03-19T19:32:51.734Z,13.75
2023-03-19T19:35:27.467Z,12.00
2023-03-19T19:37:55.412Z,14.75
2023-03-19T19:40:27.533Z,13.30
2023-03-19T19:42:54.193Z,12.88
2023-03-19T19:45:32.923Z,11.77
2023-03-19T19:48:00.038Z,10.88
2023-03-19T19:50:27.729Z,11.77
2023-03-19T19:52:55.522Z,10.48
2023-03-19T19:55:24.295Z,15.27
2023-03-19T19:57:51.380Z,10.95
2023-03-19T20:00:23.766Z,11.98
2023-03-19T20:02:50.899Z,12.48
2023-03-19T20:05:25.886Z,13.43
2023-03-19T20:07:54.100Z,13.10
2023-03-19T20:10:21.683Z,10.32
2023-03-19T20:12:51.321Z,8.68
2023-03-19T20:15:23.634Z,9.57
2023-03-19T20:17:51.840Z,11.45
2023-03-19T20:20:24.820Z,10.75
2023-03-19T20:22:51.694Z,10.82
2023-03-19T20:25:19.810Z,10.00
2023-03-19T20:27:47.122Z,11.40
2023-03-19T20:30:38.676Z,10.52
2023-03-19T20:33:06.142Z,12.80
2023-03-19T20:35:35.647Z,11.93
2023-03-19T20:38:04.735Z,9.93
2023-03-19T20:40:38.116Z,13.00
2023-03-19T20:43:05.842Z,12.50
2023-03-19T20:45:37.700Z,12.25
2023-03-19T20:48:05.110Z,11.27
2023-03-19T20:50:33.127Z,12.57
2023-03-19T20:53:03.558Z,11.70
2023-03-19T20:55:32.372Z,11.90
2023-03-19T20:57:59.894Z,13.13
2023-03-19T21:00:31.943Z,11.50
2023-03-19T21:02:59.838Z,13.95
2023-03-19T21:05:34.919Z,11.57
2023-03-19T21:08:03.339Z,14.77
2023-03-19T21:10:42.308Z,16.45
2023-03-19T21:13:13.348Z,13.13
2023-03-19T21:15:40.310Z,14.52
2023-03-19T21:18:07.329Z,13.65
2023-03-19T21:20:34.466Z,13.38
2023-03-19T21:23:14.526Z,15.55
2023-03-19T21:25:41.214Z,13.48
2023-03-19T21:28:17.510Z,15.40
2023-03-19T21:30:45.860Z,16.45
2023-03-19T21:33:28.388Z,14.45
2023-03-19T21:35:56.358Z,13.57
2023-03-19T21:38:23.431Z,14.50
2023-03-19T21:40:57.909Z,15.52
2023-03-19T21:43:33.916Z,14.00
2023-03-19T21:46:13.772Z,15.05
2023-03-19T21:48:44.098Z,14.10
2023-03-19T21:51:16.936Z,14.02
2023-03-19T21:53:45.602Z,13.25
2023-03-19T21:56:33.402Z,16.73
2023-03-19T21:59:02.153Z,15.03
2023-03-19T22:01:28.581Z,16.70
2023-03-19T22:03:57.602Z,19.10
2023-03-19T22:06:25.113Z,14.50
2023-03-19T22:08:53.837Z,16.98
2023-03-19T22:11:27.099Z,16.70
2023-03-19T22:13:54.614Z,15.75
2023-03-19T22:16:23.924Z,19.00
2023-03-19T22:18:52.220Z,17.33
2023-03-19T22:21:21.535Z,16.13
2023-03-19T22:23:48.894Z,18.43
2023-03-19T22:26:36.834Z,19.40
2023-03-19T22:29:25.355Z,19.93
2023-03-19T22:31:52.981Z,19.02
2023-03-19T22:34:22.500Z,20.53
2023-03-19T22:36:49.337Z,19.83
2023-03-19T22:39:15.979Z,19.15
2023-03-19T22:41:45.494Z,20.53
2023-03-19T22:44:19.284Z,24.30
2023-03-19T22:46:46.322Z,22.43
2023-03-19T22:49:13.825Z,20.93
2023-03-19T22:51:40.305Z,20.67
2023-03-19T22:54:07.001Z,27.52
2023-03-19T22:56:33.481Z,23.50
2023-03-19T22:59:00.011Z,22.55
2023-03-19T23:01:30.955Z,20.17
2023-03-19T23:03:57.962Z,22.07
2023-03-19T23:06:30.711Z,23.33
2023-03-19T23:08:57.770Z,24.05
2023-03-19T23:11:24.450Z,20.45
2023-03-19T23:13:51.031Z,20.63
2023-03-19T23:16:22.338Z,21.33
2023-03-19T23:18:49.765Z,20.73
2023-03-19T23:21:17.930Z,20.47
2023-03-19T23:23:44.955Z,17.92
2023-03-19T23:26:37.915Z,19.98
2023-03-19T23:29:06.091Z,18.75
2023-03-19T23:31:34.356Z,18.17
2023-03-19T23:34:00.899Z,16.73
2023-03-19T23:36:27.753Z,16.67
2023-03-19T23:38:54.597Z,17.83
2023-03-19T23:41:26.095Z,22.77
2023-03-19T23:43:52.989Z,24.03
2023-03-19T23:46:20.703Z,22.03
2023-03-19T23:48:47.614Z,21.67
2023-03-19T23:51:15.359Z,23.20
2023-03-19T23:53:42.892Z,23.53
2023-03-19T23:56:23.895Z,20.90
2023-03-19T23:58:51.540Z,23.13
